Super Servant 4 — PJPO — position and weather

sailwx.info

Track history (hours):
 
Tides and Currents Weather Stations Pressure Air Temp Water Temp Dewpoint Dewpoint Depression Visibility Wind Speed Wind Dir Waves Ship Positions

Super Servant 4

Last reported at 2017-Mar-25 17:09 UTC. Time now 2017-Mar-28 12:08 UTC.
Position N 35°57' W 005°49'.

Length 139 m; beam 32 m.

Type: Cargo ship. MMSI: 306157000.

Date/timePositionNaut miles runAvg speedWind from/ knotsBaromVisibWave heightAir tempDewpointWater temp
2017-Mar-25 17:09N 35°57' W 005°49'8 9.2
2017-Mar-25 16:17N 35°57' W 005°39'8 9.2
2017-Mar-25 15:26N 35°59' W 005°30'9 9.7
2017-Mar-25 14:33N 36°01' W 005°20'22110.3
2017-Mar-24 17:05N 37°08' W 000°57'811.2
2017-Mar-24 16:23N 37°13' W 000°49'15911.3
2017-Mar-24 02:15N 38°48' E 001°53'811.2
2017-Mar-24 01:32N 38°55' E 001°59'1010.4
2017-Mar-24 00:33N 39°02' E 002°08'1010.2
2017-Mar-23 23:33N 39°10' E 002°16'1110.7
2017-Mar-23 22:33N 39°19' E 002°25'1110.8
2017-Mar-23 21:33N 39°27' E 002°33'7 7.0
2017-Mar-23 20:33N 39°33' E 002°38'0 0.2
2017-Mar-23 19:31N 39°33' E 002°38'0 0.0
2017-Mar-23 18:31N 39°33' E 002°38'0 0.0
2017-Mar-23 17:31N 39°33' E 002°38'0 0.0
2017-Mar-23 16:31N 39°33' E 002°38'0 0.0
2017-Mar-23 15:31N 39°33' E 002°38'0 0.0
2017-Mar-23 14:31N 39°33' E 002°38'0 0.0
2017-Mar-23 13:31N 39°33' E 002°38'0 0.0
2017-Mar-23 12:31N 39°33' E 002°38'0 0.0
2017-Mar-23 11:31N 39°33' E 002°38'0 0.0
2017-Mar-23 10:31N 39°33' E 002°38'0 0.0
2017-Mar-23 09:31N 39°33' E 002°38'0 0.0
2017-Mar-23 08:31N 39°33' E 002°38'0 0.0
2017-Mar-23 07:31N 39°33' E 002°38'0 0.0
2017-Mar-23 06:31N 39°33' E 002°38'0 0.0
2017-Mar-23 05:31N 39°33' E 002°38'0 0.0
2017-Mar-23 04:31N 39°33' E 002°38'0 0.0
2017-Mar-23 03:31N 39°33' E 002°38'0 0.0
2017-Mar-23 02:33N 39°33' E 002°38'2 2.3
2017-Mar-23 01:33N 39°31' E 002°38'8 8.4
2017-Mar-23 00:33N 39°25' E 002°30'10 9.6
2017-Mar-22 23:33N 39°29' E 002°19'1111.2
2017-Mar-22 22:33N 39°39' E 002°11'1010.3
2017-Mar-22 21:33N 39°48' E 002°16'1111.2
2017-Mar-22 20:33N 39°57' E 002°24'1111.0
2017-Mar-22 19:33N 40°07' E 002°31'1110.8
2017-Mar-22 18:33N 40°16' E 002°40'1111.1
2017-Mar-22 17:33N 40°24' E 002°50'1111.4
2017-Mar-22 16:33N 40°32' E 003°00'1211.7
2017-Mar-22 15:33N 40°41' E 003°10'1211.7
2017-Mar-22 14:33N 40°49' E 003°22'1311.1
2017-Mar-22 13:25N 40°58' E 003°34'14611.2
2017-Mar-22 00:21N 43°08' E 005°01'911.7
2017-Mar-21 23:33N 43°18' E 004°59'8 8.2
2017-Mar-21 22:33N 43°24' E 004°53'1 0.1
2017-Mar-21 09:05N 43°25' E 004°52'2 4.3
2017-Mar-21 08:32N 43°24' E 004°55'7 7.3
2017-Mar-21 07:32N 43°17' E 005°00'22 8.9
2017-Mar-21 05:05N 42°57' E 004°50'2110.3
2017-Mar-21 03:03N 42°40' E 004°33'6311.2
2017-Mar-20 21:29N 41°49' E 003°44'2511.9
2017-Mar-20 19:21N 41°29' E 003°24'911.4
2017-Mar-20 18:33N 41°22' E 003°16'1211.3
2017-Mar-20 17:31N 41°12' E 003°07'1211.7
2017-Mar-20 16:32N 41°03' E 002°58'1212.2
2017-Mar-20 15:33N 40°53' E 002°49'1212.2
2017-Mar-20 14:33N 40°43' E 002°39'1212.3
2017-Mar-20 13:33N 40°34' E 002°30'1212.1
2017-Mar-20 12:33N 40°24' E 002°20'1211.9
2017-Mar-20 11:33N 40°14' E 002°11'1211.9
2017-Mar-20 10:33N 40°05' E 002°02'1211.8
2017-Mar-20 09:33N 39°55' E 001°53'1010.4
2017-Mar-20 08:33N 39°47' E 001°45'9 9.1
2017-Mar-20 07:33N 39°39' E 001°38'1212.3
2017-Mar-20 06:33N 39°29' E 001°28'1212.1
2017-Mar-20 05:33N 39°20' E 001°19'1813.0
2017-Mar-20 04:11N 39°05' E 001°06'813.2
2017-Mar-20 03:33N 38°58' E 000°60'1313.0
2017-Mar-20 02:33N 38°48' E 000°50'1212.3
2017-Mar-20 01:33N 38°38' E 000°40'1211.6
2017-Mar-20 00:34N 38°28' E 000°32'1211.8
2017-Mar-19 23:33N 38°19' E 000°23'1212.1
2017-Mar-19 22:33N 38°09' E 000°14'2512.3
2017-Mar-19 20:29N 37°48' W 000°05'1112.1
2017-Mar-19 19:33N 37°39' W 000°13'1212.1
2017-Mar-19 18:33N 37°29' W 000°22'1212.0
2017-Mar-19 17:32N 37°20' W 000°32'1212.0
2017-Mar-19 16:34N 37°13' W 000°44'1212.0
2017-Mar-19 15:33N 37°06' W 000°56'1612.0
2017-Mar-19 14:13N 36°56' W 001°12'18511.1
2017-Mar-18 21:31N 36°02' W 004°53'1211.5
2017-Mar-18 20:28N 36°00' W 005°07'1111.8
2017-Mar-18 19:34N 35°58' W 005°20'1211.5
2017-Mar-18 18:33N 35°55' W 005°34'1111.0
2017-Mar-18 17:33N 35°54' W 005°48'14610.4
2017-Mar-18 03:32N 36°27' W 008°44'10510.6
2017-Mar-17 17:33N 37°56' W 009°53'1111.5
2017-Mar-17 16:34N 38°08' W 009°56'1211.8
2017-Mar-17 15:31N 38°20' W 009°60'1111.7
2017-Mar-17 14:34N 38°31' W 010°03'1111.3
2017-Mar-17 13:33N 38°42' W 010°06'1211.6
2017-Mar-17 12:33N 38°53' W 010°07'1211.8
2017-Mar-17 11:34N 39°05' W 010°07'1211.9
2017-Mar-17 10:33N 39°17' W 010°07'1111.5
2017-Mar-17 09:33N 39°28' W 010°06'3511.6
2017-Mar-17 06:33N 40°03' W 010°07'1211.7
2017-Mar-17 05:33N 40°15' W 010°07'1211.8
2017-Mar-17 04:33N 40°27' W 010°06'1211.9
2017-Mar-17 03:34N 40°39' W 010°06'1212.1
2017-Mar-17 02:33N 40°51' W 010°07'1212.1
2017-Mar-17 01:33N 41°03' W 010°06'1212.2
2017-Mar-17 00:34N 41°15' W 010°07'  
Track history (hours):
 
Tides and Currents Weather Stations Pressure Air Temp Water Temp Dewpoint Dewpoint Depression Visibility Wind Speed Wind Dir Waves Ship Positions

Super Servant 4

Last reported at 2017-Mar-25 17:09 UTC. Time now 2017-Mar-28 12:08 UTC.
Position N 35°57' W 005°49'.

Length 139 m; beam 32 m.

Type: Cargo ship. MMSI: 306157000.

Date/timePositionNaut miles runAvg speedWind from/ knotsBaromVisibWave heightAir tempDewpointWater temp
2017-Mar-25 17:09N 35°57' W 005°49'8 9.2
2017-Mar-25 16:17N 35°57' W 005°39'8 9.2
2017-Mar-25 15:26N 35°59' W 005°30'9 9.7
2017-Mar-25 14:33N 36°01' W 005°20'22110.3
2017-Mar-24 17:05N 37°08' W 000°57'811.2
2017-Mar-24 16:23N 37°13' W 000°49'15911.3
2017-Mar-24 02:15N 38°48' E 001°53'811.2
2017-Mar-24 01:32N 38°55' E 001°59'1010.4
2017-Mar-24 00:33N 39°02' E 002°08'1010.2
2017-Mar-23 23:33N 39°10' E 002°16'1110.7
2017-Mar-23 22:33N 39°19' E 002°25'1110.8
2017-Mar-23 21:33N 39°27' E 002°33'7 7.0
2017-Mar-23 20:33N 39°33' E 002°38'0 0.2
2017-Mar-23 19:31N 39°33' E 002°38'0 0.0
2017-Mar-23 18:31N 39°33' E 002°38'0 0.0
2017-Mar-23 17:31N 39°33' E 002°38'0 0.0
2017-Mar-23 16:31N 39°33' E 002°38'0 0.0
2017-Mar-23 15:31N 39°33' E 002°38'0 0.0
2017-Mar-23 14:31N 39°33' E 002°38'0 0.0
2017-Mar-23 13:31N 39°33' E 002°38'0 0.0
2017-Mar-23 12:31N 39°33' E 002°38'0 0.0
2017-Mar-23 11:31N 39°33' E 002°38'0 0.0
2017-Mar-23 10:31N 39°33' E 002°38'0 0.0
2017-Mar-23 09:31N 39°33' E 002°38'0 0.0
2017-Mar-23 08:31N 39°33' E 002°38'0 0.0
2017-Mar-23 07:31N 39°33' E 002°38'0 0.0
2017-Mar-23 06:31N 39°33' E 002°38'0 0.0
2017-Mar-23 05:31N 39°33' E 002°38'0 0.0
2017-Mar-23 04:31N 39°33' E 002°38'0 0.0
2017-Mar-23 03:31N 39°33' E 002°38'0 0.0
2017-Mar-23 02:33N 39°33' E 002°38'2 2.3
2017-Mar-23 01:33N 39°31' E 002°38'8 8.4
2017-Mar-23 00:33N 39°25' E 002°30'10 9.6
2017-Mar-22 23:33N 39°29' E 002°19'1111.2
2017-Mar-22 22:33N 39°39' E 002°11'1010.3
2017-Mar-22 21:33N 39°48' E 002°16'1111.2
2017-Mar-22 20:33N 39°57' E 002°24'1111.0
2017-Mar-22 19:33N 40°07' E 002°31'1110.8
2017-Mar-22 18:33N 40°16' E 002°40'1111.1
2017-Mar-22 17:33N 40°24' E 002°50'1111.4
2017-Mar-22 16:33N 40°32' E 003°00'1211.7
2017-Mar-22 15:33N 40°41' E 003°10'1211.7
2017-Mar-22 14:33N 40°49' E 003°22'1311.1
2017-Mar-22 13:25N 40°58' E 003°34'14611.2
2017-Mar-22 00:21N 43°08' E 005°01'911.7
2017-Mar-21 23:33N 43°18' E 004°59'8 8.2
2017-Mar-21 22:33N 43°24' E 004°53'1 0.1
2017-Mar-21 09:05N 43°25' E 004°52'2 4.3
2017-Mar-21 08:32N 43°24' E 004°55'7 7.3
2017-Mar-21 07:32N 43°17' E 005°00'22 8.9
2017-Mar-21 05:05N 42°57' E 004°50'2110.3
2017-Mar-21 03:03N 42°40' E 004°33'6311.2
2017-Mar-20 21:29N 41°49' E 003°44'2511.9
2017-Mar-20 19:21N 41°29' E 003°24'911.4
2017-Mar-20 18:33N 41°22' E 003°16'1211.3
2017-Mar-20 17:31N 41°12' E 003°07'1211.7
2017-Mar-20 16:32N 41°03' E 002°58'1212.2
2017-Mar-20 15:33N 40°53' E 002°49'1212.2
2017-Mar-20 14:33N 40°43' E 002°39'1212.3
2017-Mar-20 13:33N 40°34' E 002°30'1212.1
2017-Mar-20 12:33N 40°24' E 002°20'1211.9
2017-Mar-20 11:33N 40°14' E 002°11'1211.9
2017-Mar-20 10:33N 40°05' E 002°02'1211.8
2017-Mar-20 09:33N 39°55' E 001°53'1010.4
2017-Mar-20 08:33N 39°47' E 001°45'9 9.1
2017-Mar-20 07:33N 39°39' E 001°38'1212.3
2017-Mar-20 06:33N 39°29' E 001°28'1212.1
2017-Mar-20 05:33N 39°20' E 001°19'1813.0
2017-Mar-20 04:11N 39°05' E 001°06'813.2
2017-Mar-20 03:33N 38°58' E 000°60'1313.0
2017-Mar-20 02:33N 38°48' E 000°50'1212.3
2017-Mar-20 01:33N 38°38' E 000°40'1211.6
2017-Mar-20 00:34N 38°28' E 000°32'1211.8
2017-Mar-19 23:33N 38°19' E 000°23'1212.1
2017-Mar-19 22:33N 38°09' E 000°14'2512.3
2017-Mar-19 20:29N 37°48' W 000°05'1112.1
2017-Mar-19 19:33N 37°39' W 000°13'1212.1
2017-Mar-19 18:33N 37°29' W 000°22'1212.0
2017-Mar-19 17:32N 37°20' W 000°32'1212.0
2017-Mar-19 16:34N 37°13' W 000°44'1212.0
2017-Mar-19 15:33N 37°06' W 000°56'1612.0
2017-Mar-19 14:13N 36°56' W 001°12'18511.1
2017-Mar-18 21:31N 36°02' W 004°53'1211.5
2017-Mar-18 20:28N 36°00' W 005°07'1111.8
2017-Mar-18 19:34N 35°58' W 005°20'1211.5
2017-Mar-18 18:33N 35°55' W 005°34'1111.0
2017-Mar-18 17:33N 35°54' W 005°48'14610.4
2017-Mar-18 03:32N 36°27' W 008°44'10510.6
2017-Mar-17 17:33N 37°56' W 009°53'1111.5
2017-Mar-17 16:34N 38°08' W 009°56'1211.8
2017-Mar-17 15:31N 38°20' W 009°60'1111.7
2017-Mar-17 14:34N 38°31' W 010°03'1111.3
2017-Mar-17 13:33N 38°42' W 010°06'1211.6
2017-Mar-17 12:33N 38°53' W 010°07'1211.8
2017-Mar-17 11:34N 39°05' W 010°07'1211.9
2017-Mar-17 10:33N 39°17' W 010°07'1111.5
2017-Mar-17 09:33N 39°28' W 010°06'3511.6
2017-Mar-17 06:33N 40°03' W 010°07'1211.7
2017-Mar-17 05:33N 40°15' W 010°07'1211.8
2017-Mar-17 04:33N 40°27' W 010°06'1211.9
2017-Mar-17 03:34N 40°39' W 010°06'1212.1
2017-Mar-17 02:33N 40°51' W 010°07'1212.1
2017-Mar-17 01:33N 41°03' W 010°06'1212.2
2017-Mar-17 00:34N 41°15' W 010°07'  

Dump ship's entire track history